Time;durP1;ratioP1;P1;durP2;ratioP2;P2;SDS_P1;SDS_P2;PMS_P1;PMS_P2;Temp;Humidity;BMP_temperature;BMP_pressure;BME280_temperature;BME280_humidity;BME280_pressure;Samples;Min_cycle;Max_cycle;Signal;HPM_P1;HPM_P2
2021/07/10 00:01:20;;;;;;;1.90;1.80;;;;;;;15.40;68.02;100672.19;6193631;23;20005;-79
2021/07/10 00:04:22;;;;;;;2.38;2.28;;;;;;;15.36;68.21;100671.94;6201259;23;20004;-78
2021/07/10 00:06:48;;;;;;;2.60;2.50;;;;;;;15.40;68.85;100686.78;6178844;23;20427;-77
2021/07/10 00:09:17;;;;;;;2.78;2.55;;;;;;;15.31;69.60;100677.53;6203669;23;20035;-79
2021/07/10 00:12:12;;;;;;;2.92;2.75;;;;;;;15.33;69.49;100676.13;6231235;23;20009;-78
2021/07/10 00:14:38;;;;;;;5.55;3.15;;;;;;;15.29;70.00;100671.50;6199097;23;20047;-79
2021/07/10 00:17:07;;;;;;;3.10;2.85;;;;;;;15.25;70.23;100673.19;6199274;23;20001;-81
2021/07/10 00:20:03;;;;;;;2.33;2.22;;;;;;;15.18;70.25;100663.31;6200837;23;20005;-81
2021/07/10 00:22:28;;;;;;;2.58;2.40;;;;;;;14.98;70.55;100630.47;6194820;23;20008;-81
2021/07/10 00:30:11;;;;;;;4.03;3.45;;;;;;;15.12;71.04;100647.97;6261613;22;20030;-82
2021/07/10 00:33:02;;;;;;;2.42;2.33;;;;;;;14.99;71.11;100626.63;6238027;23;20039;-83
2021/07/10 00:35:29;;;;;;;2.28;2.08;;;;;;;15.11;70.75;100651.84;6221299;23;20008;-84
2021/07/10 00:38:17;;;;;;;2.55;2.35;;;;;;;15.11;70.98;100640.84;6233852;23;20000;-83
2021/07/10 00:47:27;;;;;;;2.15;2.05;;;;;;;14.89;71.78;100610.19;6277341;22;20042;-80
2021/07/10 00:49:53;;;;;;;2.30;2.10;;;;;;;14.94;71.82;100623.94;6291358;22;20085;-79
2021/07/10 00:52:21;;;;;;;2.60;2.40;;;;;;;14.96;72.22;100628.00;6274650;22;20008;-79
2021/07/10 00:54:49;;;;;;;1.58;1.50;;;;;;;14.88;71.76;100614.06;6277385;22;19991;-80
2021/07/10 01:00:35;;;;;;;1.63;1.55;;;;;;;15.02;71.86;100615.03;6258701;23;20008;-79
2021/07/10 01:03:14;;;;;;;;;;;;;;;;;;;;;
2021/07/10 01:05:52;;;;;;;;;;;;;;;;;;;;;
2021/07/10 01:08:47;;;;;;;2.00;1.90;;;;;;;14.93;71.62;100609.31;6269253;22;20014;-77
2021/07/10 01:11:36;;;;;;;5.57;2.30;;;;;;;14.92;71.97;100604.13;6288795;22;20423;-77
2021/07/10 01:14:15;;;;;;;2.97;2.40;;;;;;;14.91;72.19;100605.22;6280321;22;20007;-78
2021/07/10 01:17:08;;;;;;;;;;;;;;;;;;;;;
2021/07/10 01:19:46;;;;;;;2.30;2.20;;;;;;;14.73;72.44;100585.56;6292660;22;20422;-77
2021/07/10 01:22:12;;;;;;;2.95;2.75;;;;;;;14.65;72.31;100580.72;6289250;22;20004;-76
2021/07/10 01:24:44;;;;;;;2.42;2.22;;;;;;;14.80;72.26;100586.03;6287012;22;20004;-74
2021/07/10 01:27:22;;;;;;;2.20;2.10;;;;;;;14.73;72.19;100573.75;6285663;22;20003;-74
2021/07/10 01:29:48;;;;;;;1.90;1.80;;;;;;;14.83;72.21;100577.22;6289388;22;20014;-78
2021/07/10 01:32:21;;;;;;;2.80;2.58;;;;;;;14.71;72.41;100548.44;6292438;22;19996;-77
2021/07/10 01:34:50;;;;;;;1.92;1.83;;;;;;;14.88;72.28;100575.50;6299053;22;19991;-77
2021/07/10 01:37:32;;;;;;;2.10;2.00;;;;;;;14.94;71.96;100583.44;6300425;22;20004;-77
2021/07/10 01:40:11;;;;;;;;;;;;;;;;;;;;;
2021/07/10 01:42:39;;;;;;;1.63;1.52;;;;;;;14.92;71.88;100549.03;6304752;22;20000;-76
2021/07/10 01:45:22;;;;;;;2.20;1.88;;;;;;;15.05;71.55;100573.13;6253201;22;20003;-77
2021/07/10 01:48:04;;;;;;;;;;;;;;;;;;;;;
2021/07/10 01:50:58;;;;;;;1.85;1.75;;;;;;;14.89;71.20;100533.13;6303878;22;20004;-77
2021/07/10 01:53:26;;;;;;;1.30;1.30;;;;;;;14.95;71.37;100549.28;6302532;22;20007;-77
2021/07/10 01:55:56;;;;;;;5.03;1.58;;;;;;;14.88;71.80;100525.97;6326449;22;20007;-76
2021/07/10 01:58:22;;;;;;;1.75;1.63;;;;;;;14.92;71.20;100527.03;6299315;22;20014;-77
2021/07/10 02:00:50;;;;;;;2.40;2.17;;;;;;;15.00;70.87;100523.63;6299207;22;20007;-77
2021/07/10 02:03:19;;;;;;;2.97;2.00;;;;;;;15.11;71.57;100546.34;6299920;22;20003;-76
2021/07/10 02:05:54;;;;;;;1.83;1.73;;;;;;;14.93;70.88;100517.66;6302773;22;20000;-78
2021/07/10 02:08:25;;;;;;;2.25;2.15;;;;;;;15.00;71.38;100529.13;6284644;22;20003;-77
2021/07/10 02:10:59;;;;;;;2.00;1.90;;;;;;;14.88;71.74;100507.53;6285471;22;20055;-78
2021/07/10 02:13:36;;;;;;;2.05;1.95;;;;;;;14.98;71.44;100517.59;6282178;22;20018;-78
2021/07/10 02:16:25;;;;;;;2.63;2.53;;;;;;;15.00;72.04;100529.13;6262475;22;20003;-78
2021/07/10 02:19:00;;;;;;;4.95;2.25;;;;;;;14.86;72.14;100512.47;6265500;22;20004;-77
2021/07/10 02:24:56;;;;;;;2.17;2.08;;;;;;;14.68;72.56;100485.72;6209441;22;20371;-77
2021/07/10 02:27:30;;;;;;;2.53;2.33;;;;;;;14.88;72.16;100520.44;6286061;22;20061;-81
2021/07/10 02:29:58;;;;;;;3.72;2.33;;;;;;;14.72;72.29;100489.53;6281636;22;20057;-77
2021/07/10 02:32:26;;;;;;;2.30;2.20;;;;;;;14.83;72.59;100513.91;6283687;22;20006;-78
2021/07/10 02:34:54;;;;;;;2.53;2.42;;;;;;;14.87;72.42;100518.84;6286007;22;20011;-81
2021/07/10 02:37:19;;;;;;;2.35;2.25;;;;;;;14.68;72.60;100500.31;6281689;22;20000;-81
2021/07/10 02:39:45;;;;;;;2.00;1.90;;;;;;;14.86;72.27;100517.19;6286880;22;20003;-81
2021/07/10 02:42:20;;;;;;;;;;;;;;;;;;;;;
2021/07/10 02:44:51;;;;;;;1.45;1.42;;;;;;;14.82;71.93;100509.50;6285862;22;20030;-83
2021/07/10 02:47:40;;;;;;;1.65;1.27;;;;;;;14.92;71.64;100516.00;6307797;22;20085;-76
2021/07/10 02:50:31;;;;;;;2.08;1.92;;;;;;;14.88;71.81;100482.75;6274385;22;20333;-76
2021/07/10 02:53:46;;;;;;;1.70;1.60;;;;;;;14.99;71.46;100499.97;6273960;22;20149;-77
2021/07/10 02:56:09;;;;;;;2.10;2.00;;;;;;;14.83;71.71;100486.38;6283475;22;20004;-78
2021/07/10 02:58:47;;;;;;;1.77;1.67;;;;;;;14.96;71.42;100501.34;6285017;22;19999;-78
2021/07/10 03:01:15;;;;;;;1.80;1.70;;;;;;;14.87;71.42;100483.84;6270583;22;20034;-77
2021/07/10 03:03:47;;;;;;;1.90;1.80;;;;;;;14.93;72.01;100496.44;6274565;22;20098;-78
2021/07/10 03:06:25;;;;;;;2.45;2.35;;;;;;;14.77;71.78;100487.53;6290482;22;20003;-78
2021/07/10 03:09:41;;;;;;;1.95;1.85;;;;;;;14.74;71.48;100470.81;6284583;22;20003;-79
2021/07/10 03:12:06;;;;;;;1.98;1.73;;;;;;;14.71;71.93;100466.69;6287374;22;20012;-75
2021/07/10 03:14:57;;;;;;;1.10;1.10;;;;;;;14.87;71.58;100483.03;6279855;22;20006;-75
2021/07/10 03:17:26;;;;;;;1.35;1.35;;;;;;;14.77;71.20;100467.47;6255331;22;20010;-75
2021/07/10 03:19:56;;;;;;;1.02;1.02;;;;;;;14.80;71.44;100469.63;6281147;22;20018;-76
2021/07/10 03:22:22;;;;;;;2.28;1.13;;;;;;;14.91;71.32;100481.31;6254339;22;20003;-75
2021/07/10 03:24:53;;;;;;;1.63;1.58;;;;;;;14.76;71.03;100457.56;6282464;22;20056;-76
2021/07/10 03:27:18;;;;;;;0.55;0.55;;;;;;;14.82;70.98;100468.22;6273525;22;19999;-75
2021/07/10 03:29:51;;;;;;;0.70;0.70;;;;;;;14.95;70.85;100483.22;6257361;22;20091;-75
2021/07/10 03:32:27;;;;;;;0.90;0.90;;;;;;;14.91;70.49;100476.66;6292892;22;20011;-75
2021/07/10 03:34:53;;;;;;;1.23;1.13;;;;;;;14.87;70.34;100475.59;6296671;22;19999;-75
2021/07/10 03:37:28;;;;;;;;;;;;;;;;;;;;;
2021/07/10 03:43:43;;;;;;;0.80;0.80;;;;;;;14.83;70.39;100480.88;6237846;22;20017;-80
2021/07/10 03:47:01;;;;;;;0.95;0.95;;;;;;;14.91;70.47;100492.34;6272051;22;20004;-79
2021/07/10 03:49:53;;;;;;;1.10;1.10;;;;;;;14.91;70.31;100482.16;6240006;23;20012;-79
2021/07/10 03:59:30;;;;;;;1.90;1.50;;;;;;;14.89;70.90;100487.13;6165118;23;20012;-78
2021/07/10 04:02:45;;;;;;;1.17;1.17;;;;;;;14.87;70.21;100481.09;6166237;23;20025;-78
2021/07/10 04:05:11;;;;;;;2.13;0.98;;;;;;;14.74;71.25;100477.13;6168003;23;20009;-79
2021/07/10 04:11:03;;;;;;;0.73;0.73;;;;;;;14.74;70.71;100476.31;6191715;22;20055;-77
2021/07/10 04:17:25;;;;;;;0.90;0.90;;;;;;;14.82;70.67;100483.91;6117391;23;20020;-82
2021/07/10 04:23:05;;;;;;;1.10;1.10;;;;;;;14.80;70.72;100475.94;6251671;22;19999;-82
2021/07/10 04:25:31;;;;;;;0.70;0.70;;;;;;;14.68;70.42;100456.28;6282951;22;20007;-76
2021/07/10 04:27:56;;;;;;;0.65;0.65;;;;;;;14.80;70.72;100470.44;6280454;22;20026;-79
2021/07/10 04:31:01;;;;;;;1.02;1.02;;;;;;;14.87;70.36;100483.84;6280299;22;20572;-79
2021/07/10 04:33:27;;;;;;;0.93;0.90;;;;;;;14.71;70.35;100455.69;6283195;22;20076;-79
2021/07/10 04:35:58;;;;;;;0.60;0.60;;;;;;;14.75;70.40;100455.94;6296693;22;20003;-78
2021/07/10 04:38:23;;;;;;;0.65;0.65;;;;;;;14.88;70.89;100476.41;6279559;22;20011;-76
2021/07/10 04:40:52;;;;;;;1.20;0.80;;;;;;;14.83;70.67;100474.53;6279735;22;20003;-77
2021/07/10 04:43:24;;;;;;;0.90;0.90;;;;;;;14.76;70.81;100474.06;6278059;22;19999;-78
2021/07/10 04:45:52;;;;;;;0.80;0.80;;;;;;;14.66;70.72;100453.00;6277887;22;20000;-75
2021/07/10 04:48:30;;;;;;;0.85;0.85;;;;;;;14.68;70.97;100470.03;6281097;22;20415;-76
2021/07/10 04:50:56;;;;;;;0.40;0.40;;;;;;;14.80;70.72;100486.94;6279039;22;20046;-76
2021/07/10 04:53:24;;;;;;;0.80;0.80;;;;;;;14.73;71.16;100478.22;6280525;22;20015;-78
2021/07/10 04:55:49;;;;;;;0.60;0.60;;;;;;;14.75;70.83;100481.50;6279871;22;20011;-78
2021/07/10 04:58:25;;;;;;;;;;;;;;;;;;;;;
2021/07/10 05:00:51;;;;;;;0.90;0.90;;;;;;;14.84;70.30;100471.50;6282638;22;20035;-80
2021/07/10 05:03:21;;;;;;;0.68;0.68;;;;;;;14.92;70.42;100477.47;6253113;22;20003;-77
2021/07/10 05:08:43;;;;;;;;;;;;;;;15.03;70.37;100490.00;6238712;22;20007;-76
2021/07/10 05:11:11;;;;;;;;;;;;;;;14.99;69.77;100492.50;6271354;22;19907;-79
2021/07/10 05:13:49;;;;;;;;;;;;;;;;;;;;;
2021/07/10 05:16:40;;;;;;;0.93;0.93;;;;;;;14.81;70.47;100483.09;6276958;22;20039;-78
2021/07/10 05:19:05;;;;;;;0.88;0.88;;;;;;;14.83;70.53;100497.41;6260982;22;20484;-77
2021/07/10 05:21:38;;;;;;;0.80;0.80;;;;;;;14.69;70.83;100476.34;6252353;22;20019;-75
2021/07/10 05:24:17;;;;;;;;;;;;;;;;;;;;;
2021/07/10 05:26:43;;;;;;;2.03;0.70;;;;;;;14.54;70.61;100466.31;6282471;22;20038;-78
2021/07/10 05:29:31;;;;;;;1.05;1.00;;;;;;;14.53;70.78;100478.41;6256396;22;20011;-78
2021/07/10 05:32:05;;;;;;;1.15;0.82;;;;;;;14.58;71.04;100478.38;6281964;22;20019;-79
2021/07/10 05:34:58;;;;;;;1.08;0.88;;;;;;;14.47;71.56;100472.13;6283255;22;20012;-78
2021/07/10 05:37:27;;;;;;;0.90;0.90;;;;;;;14.43;71.30;100471.91;6280831;22;20008;-78
2021/07/10 05:39:54;;;;;;;0.60;0.50;;;;;;;14.47;71.87;100489.47;6292726;22;20015;-78
2021/07/10 05:42:22;;;;;;;0.60;0.60;;;;;;;14.39;72.28;100475.53;6276423;22;19992;-78
2021/07/10 05:44:58;;;;;;;;;;;;;;;;;;;;;
2021/07/10 05:47:27;;;;;;;0.60;0.60;;;;;;;14.34;72.27;100467.31;6283580;22;20071;-79
2021/07/10 05:49:52;;;;;;;2.25;0.70;;;;;;;14.40;72.88;100480.75;6280310;22;20007;-78
2021/07/10 05:52:18;;;;;;;0.82;0.82;;;;;;;14.36;72.60;100479.69;6278966;22;20006;-77
2021/07/10 05:54:43;;;;;;;1.40;0.80;;;;;;;14.26;72.61;100474.28;6281024;22;20018;-77
2021/07/10 05:57:23;;;;;;;1.58;0.60;;;;;;;14.19;73.12;100465.53;6271041;22;20071;-78
2021/07/10 05:59:52;;;;;;;0.60;0.60;;;;;;;14.13;73.09;100448.28;6307980;22;20003;-78
2021/07/10 06:02:18;;;;;;;0.40;0.30;;;;;;;14.35;73.30;100479.97;6281639;22;20000;-78
2021/07/10 06:04:46;;;;;;;0.40;0.40;;;;;;;14.30;72.53;100456.91;6265246;22;19992;-77
2021/07/10 06:07:32;;;;;;;0.80;0.60;;;;;;;14.33;73.24;100450.00;6280100;22;20094;-76
2021/07/10 06:10:00;;;;;;;0.57;0.57;;;;;;;14.42;72.92;100456.50;6300126;22;20065;-78
2021/07/10 06:12:35;;;;;;;0.60;0.60;;;;;;;14.42;73.16;100448.25;6292658;22;20042;-78
2021/07/10 06:15:07;;;;;;;0.50;0.50;;;;;;;14.48;72.79;100446.28;6298429;22;20012;-76
2021/07/10 06:17:41;;;;;;;0.52;0.52;;;;;;;14.54;72.85;100438.78;6293939;22;20018;-76
2021/07/10 06:20:21;;;;;;;;;;;;;;;;;;;;;
2021/07/10 06:22:52;;;;;;;0.40;0.30;;;;;;;14.76;72.02;100446.53;6295601;22;20000;-76
2021/07/10 06:32:25;;;;;;;0.30;0.30;;;;;;;14.88;72.06;100443.38;5987665;24;20008;-79
2021/07/10 06:45:24;;;;;;;0.40;0.40;;;;;;;14.81;71.70;100411.50;5898296;23;20037;-80
2021/07/10 06:48:06;;;;;;;;;;;;;;;;;;;;;
2021/07/10 06:50:37;;;;;;;0.17;0.17;;;;;;;14.94;71.05;100417.44;6102613;23;20058;-78
2021/07/10 06:53:19;;;;;;;0.55;0.40;;;;;;;15.01;71.36;100428.91;6120428;23;20025;-78
2021/07/10 06:56:26;;;;;;;0.25;0.25;;;;;;;14.93;71.35;100413.03;6202463;22;20008;-78
2021/07/10 06:59:44;;;;;;;;;;;;;;;;;;;;;
2021/07/10 07:03:12;;;;;;;;;;;;;;;;;;;;;
2021/07/10 07:05:56;;;;;;;0.10;0.10;;;;;;;15.45;71.30;100441.50;6263291;22;20046;-76
2021/07/10 07:09:18;;;;;;;0.10;0.10;;;;;;;15.58;70.81;100433.59;6242197;22;20065;-78
2021/07/10 07:11:51;;;;;;;0.10;0.10;;;;;;;15.47;70.43;100405.38;6282305;22;20008;-81
2021/07/10 07:14:21;;;;;;;0.10;0.10;;;;;;;15.52;70.35;100411.63;6258817;22;20430;-75
2021/07/10 07:16:59;;;;;;;0.08;0.08;;;;;;;15.75;70.52;100442.13;6259508;22;20614;-80
2021/07/10 07:19:29;;;;;;;0.20;0.20;;;;;;;15.73;70.38;100421.50;6284750;22;20006;-76
2021/07/10 07:21:58;;;;;;;0.10;0.10;;;;;;;15.93;70.35;100443.25;6232946;22;20428;-81
2021/07/10 07:24:30;;;;;;;0.10;0.10;;;;;;;15.88;70.35;100416.56;6257462;22;20004;-78
2021/07/10 07:26:59;;;;;;;0.05;0.05;;;;;;;15.94;70.06;100419.25;6253235;22;20090;-78
2021/07/10 07:29:25;;;;;;;0.10;0.10;;;;;;;16.11;69.99;100433.28;6262054;22;20007;-77
2021/07/10 07:31:51;;;;;;;0.00;0.00;;;;;;;16.26;69.78;100436.91;6259335;22;20012;-75
2021/07/10 07:34:16;;;;;;;0.10;0.10;;;;;;;16.29;69.63;100436.28;6232840;22;20008;-75
2021/07/10 07:36:41;;;;;;;0.20;0.20;;;;;;;16.33;69.26;100431.81;6266189;22;20063;-79
2021/07/10 07:39:08;;;;;;;0.20;0.20;;;;;;;16.42;69.03;100440.19;6244999;22;20003;-79
2021/07/10 07:41:37;;;;;;;0.10;0.10;;;;;;;16.43;69.29;100431.59;6301090;22;19995;-79
2021/07/10 07:44:04;;;;;;;0.10;0.10;;;;;;;16.53;69.30;100431.41;6300567;22;19983;-79
2021/07/10 07:46:30;;;;;;;0.10;0.10;;;;;;;16.69;69.10;100431.09;6276635;22;20051;-79
2021/07/10 07:48:56;;;;;;;0.00;0.00;;;;;;;16.82;68.70;100424.75;6294657;22;20003;-79
2021/07/10 07:51:22;;;;;;;0.20;0.20;;;;;;;16.93;68.32;100433.66;6285632;22;20019;-80
2021/07/10 07:53:48;;;;;;;0.35;0.35;;;;;;;17.00;68.30;100433.25;6287216;22;20000;-80
2021/07/10 07:56:14;;;;;;;0.35;0.30;;;;;;;17.05;68.19;100435.91;6235324;22;20007;-80
2021/07/10 07:58:40;;;;;;;0.03;0.03;;;;;;;17.16;68.21;100436.50;6287203;22;20007;-80
2021/07/10 08:01:07;;;;;;;0.20;0.20;;;;;;;17.22;67.92;100430.53;6287037;22;20072;-80
2021/07/10 08:03:48;;;;;;;0.13;0.13;;;;;;;17.39;67.95;100423.53;6261385;22;20008;-80
2021/07/10 08:06:14;;;;;;;0.25;0.25;;;;;;;17.45;67.98;100428.66;6236966;22;19999;-80
2021/07/10 08:08:39;;;;;;;0.20;0.20;;;;;;;17.45;67.34;100416.78;6286794;22;20010;-81
2021/07/10 08:11:09;;;;;;;0.20;0.20;;;;;;;17.60;67.16;100416.41;6288587;22;20004;-80
2021/07/10 08:13:38;;;;;;;0.10;0.10;;;;;;;17.69;66.73;100418.41;6286200;22;20430;-81
2021/07/10 08:16:09;;;;;;;0.10;0.10;;;;;;;17.75;66.50;100419.91;6285363;22;20003;-81
2021/07/10 08:18:39;;;;;;;0.10;0.10;;;;;;;17.85;65.98;100418.84;6310715;22;20064;-81
2021/07/10 08:21:07;;;;;;;0.10;0.10;;;;;;;17.87;65.77;100422.94;6286704;22;20007;-79
2021/07/10 08:23:35;;;;;;;0.00;0.00;;;;;;;17.98;65.51;100433.78;6284841;22;19999;-80
2021/07/10 08:26:11;;;;;;;;;;;;;;;;;;;;;
2021/07/10 08:28:51;;;;;;;0.13;0.00;;;;;;;18.14;65.52;100423.94;6283551;22;20030;-80
2021/07/10 08:31:17;;;;;;;0.00;0.00;;;;;;;18.34;64.87;100433.66;6284313;22;20002;-79
2021/07/10 08:33:45;;;;;;;0.10;0.10;;;;;;;18.35;65.23;100418.66;6287816;22;20000;-80
2021/07/10 08:36:11;;;;;;;0.20;0.20;;;;;;;18.44;65.35;100418.69;6312338;22;20014;-79
2021/07/10 08:38:37;;;;;;;0.00;0.00;;;;;;;18.58;64.82;100424.94;6283686;22;20003;-80
2021/07/10 08:41:20;;;;;;;;;;;;;;;;;;;;;
2021/07/10 08:44:11;;;;;;;0.10;0.10;;;;;;;18.84;65.45;100407.59;6287202;22;20030;-80
2021/07/10 08:46:47;;;;;;;;;;;;;;;;;;;;;
2021/07/10 08:49:34;;;;;;;0.30;0.00;;;;;;;19.01;64.69;100404.06;6284752;22;20027;-80
2021/07/10 08:52:05;;;;;;;0.00;0.00;;;;;;;19.19;64.17;100418.78;6262291;22;20034;-79
2021/07/10 08:54:32;;;;;;;0.10;0.00;;;;;;;19.39;64.15;100427.59;6257392;22;20008;-79
2021/07/10 08:57:03;;;;;;;0.10;0.10;;;;;;;19.38;64.56;100406.53;6282511;22;20023;-80
2021/07/10 08:59:28;;;;;;;0.10;0.10;;;;;;;19.58;64.39;100422.56;6257675;22;20034;-78
2021/07/10 09:01:54;;;;;;;0.03;0.03;;;;;;;19.74;63.74;100433.13;6283487;22;19995;-80
2021/07/10 09:04:21;;;;;;;0.17;0.10;;;;;;;19.86;63.68;100428.59;6281720;22;20322;-79
2021/07/10 09:06:47;;;;;;;0.10;0.10;;;;;;;19.91;63.46;100424.81;6285921;22;20004;-79
2021/07/10 09:09:12;;;;;;;0.00;0.00;;;;;;;19.98;62.83;100419.59;6290218;22;20020;-78
2021/07/10 09:11:42;;;;;;;0.10;0.00;;;;;;;19.97;62.33;100411.59;6295065;22;20482;-79
2021/07/10 09:14:07;;;;;;;0.10;0.10;;;;;;;20.01;62.26;100421.69;6293980;22;19996;-79
2021/07/10 09:16:45;;;;;;;0.10;0.10;;;;;;;20.05;62.41;100422.66;6258885;22;20014;-78
2021/07/10 09:19:36;;;;;;;0.10;0.10;;;;;;;20.14;62.67;100427.41;6282771;22;20042;-80
2021/07/10 09:22:04;;;;;;;0.10;0.10;;;;;;;20.25;62.51;100423.09;6286604;22;20004;-79
2021/07/10 09:24:50;;;;;;;;;;;;;;;;;;;;;
2021/07/10 09:27:23;;;;;;;;;;;;;;;20.86;61.58;100419.28;6288145;22;20003;-77
2021/07/10 09:29:49;;;;;;;0.00;0.00;;;;;;;20.98;61.72;100419.34;6262152;22;19907;-80
2021/07/10 09:32:23;;;;;;;0.00;0.00;;;;;;;21.25;60.99;100408.88;6307847;22;20007;-79
2021/07/10 09:34:52;;;;;;;0.00;0.00;;;;;;;21.41;60.62;100412.66;6315789;22;20023;-79
2021/07/10 09:37:24;;;;;;;0.00;0.00;;;;;;;21.67;60.12;100419.19;6278403;22;20030;-80
2021/07/10 09:40:17;;;;;;;0.20;0.00;;;;;;;21.71;59.52;100404.25;6285292;22;19996;-80
2021/07/10 09:42:48;;;;;;;0.10;0.10;;;;;;;21.74;58.75;100400.78;6310084;22;20046;-79
2021/07/10 09:45:33;;;;;;;;;;;;;;;;;;;;;
2021/07/10 09:48:09;;;;;;;0.08;0.08;;;;;;;22.01;58.62;100394.97;6286366;22;20035;-79
2021/07/10 09:50:38;;;;;;;0.10;0.10;;;;;;;22.22;58.22;100406.00;6284136;22;20038;-80
2021/07/10 09:53:20;;;;;;;0.10;0.10;;;;;;;22.64;57.60;100417.00;6284498;22;20008;-80
2021/07/10 09:55:46;;;;;;;0.03;0.03;;;;;;;22.64;56.80;100405.84;6288775;22;20133;-80
2021/07/10 09:58:31;;;;;;;1.90;0.15;;;;;;;22.87;55.45;100419.28;6286095;22;20011;-81
2021/07/10 10:01:04;;;;;;;0.10;0.10;;;;;;;22.87;54.03;100427.66;6292291;22;20004;-77
2021/07/10 10:03:39;;;;;;;0.10;0.10;;;;;;;22.91;55.08;100420.22;6246847;22;20057;-80
2021/07/10 10:06:34;;;;;;;0.13;0.10;;;;;;;23.00;55.45;100415.34;6294601;22;20018;-80
2021/07/10 10:09:17;;;;;;;0.10;0.00;;;;;;;23.09;55.68;100421.59;6294987;22;19992;-81
2021/07/10 10:12:07;;;;;;;0.10;0.10;;;;;;;23.39;55.42;100414.94;6294810;22;20034;-79
2021/07/10 10:14:40;;;;;;;0.00;0.00;;;;;;;23.30;54.11;100387.19;6293178;22;20022;-80
2021/07/10 10:17:05;;;;;;;0.10;0.10;;;;;;;23.50;53.61;100397.34;6293585;22;20006;-81
2021/07/10 10:19:48;;;;;;;;;;;;;;;;;;;;;
2021/07/10 10:22:16;;;;;;;0.10;0.10;;;;;;;23.79;53.35;100409.31;6292833;22;20000;-81
2021/07/10 10:24:48;;;;;;;0.10;0.10;;;;;;;23.83;52.81;100393.47;6291730;22;20007;-81
2021/07/10 10:27:17;;;;;;;0.10;0.10;;;;;;;24.02;52.31;100415.16;6284803;22;20389;-79
2021/07/10 10:29:52;;;;;;;0.15;0.15;;;;;;;24.08;52.24;100420.47;6291670;22;20010;-81
2021/07/10 10:32:20;;;;;;;0.10;0.10;;;;;;;24.01;50.93;100404.34;6265854;22;20472;-79
2021/07/10 10:34:50;;;;;;;0.10;0.10;;;;;;;24.01;51.84;100393.19;6291869;22;20003;-80
2021/07/10 10:37:24;;;;;;;0.10;0.10;;;;;;;24.43;51.99;100420.59;6291471;22;19996;-80
2021/07/10 10:39:53;;;;;;;2.40;0.25;;;;;;;24.51;49.49;100411.22;6294356;22;20018;-81
2021/07/10 10:42:32;;;;;;;0.15;0.15;;;;;;;24.61;50.13;100403.50;6293121;22;20040;-82
2021/07/10 10:45:03;;;;;;;0.10;0.10;;;;;;;24.82;48.82;100409.56;6288972;22;20031;-81
2021/07/10 10:47:52;;;;;;;0.20;0.20;;;;;;;24.97;48.26;100409.91;6293091;22;20035;-81
2021/07/10 10:50:30;;;;;;;0.20;0.20;;;;;;;25.01;48.55;100405.22;6292775;22;20003;-80
2021/07/10 10:52:58;;;;;;;5.85;0.30;;;;;;;25.15;48.58;100405.53;6290569;22;19999;-80
2021/07/10 10:55:39;;;;;;;;;;;;;;;;;;;;;
2021/07/10 10:58:29;;;;;;;0.10;0.10;;;;;;;25.64;47.47;100408.97;6286503;22;20015;-79
2021/07/10 11:01:06;;;;;;;0.10;0.10;;;;;;;25.51;47.17;100397.94;6285146;22;20014;-80
2021/07/10 11:07:26;;;;;;;0.30;0.30;;;;;;;25.19;46.87;100378.44;6298185;22;20034;-79
2021/07/10 11:10:07;;;;;;;0.20;0.20;;;;;;;25.04;46.90;100398.88;6297492;22;20019;-80
2021/07/10 11:12:52;;;;;;;0.20;0.10;;;;;;;25.25;48.24;100402.16;6290724;22;20023;-81
2021/07/10 11:15:24;;;;;;;;;;;;;;;25.71;46.26;100392.31;6285185;22;20003;-78
2021/07/10 11:17:53;;;;;;;0.10;0.10;;;;;;;25.48;45.80;100390.28;6288272;22;19910;-79
2021/07/10 11:20:40;;;;;;;0.10;0.10;;;;;;;25.32;45.72;100392.31;6282731;22;20041;-80
2021/07/10 11:23:06;;;;;;;0.10;0.10;;;;;;;25.05;44.99;100389.31;6283314;22;20008;-79
2021/07/10 11:25:49;;;;;;;0.30;0.30;;;;;;;25.01;45.23;100383.63;6281815;22;20378;-80
2021/07/10 11:28:22;;;;;;;0.55;0.50;;;;;;;24.77;45.83;100370.72;6278022;22;19999;-79
2021/07/10 11:30:55;;;;;;;0.20;0.20;;;;;;;24.71;45.88;100369.41;6285293;22;19996;-79
2021/07/10 11:34:02;;;;;;;0.17;0.17;;;;;;;24.96;45.93;100383.13;6283829;22;20008;-79
2021/07/10 11:36:33;;;;;;;0.10;0.10;;;;;;;25.29;46.41;100377.06;6285477;22;20011;-81
2021/07/10 11:38:59;;;;;;;0.20;0.20;;;;;;;25.37;44.11;100376.06;6294662;22;20018;-79
2021/07/10 11:41:40;;;;;;;0.10;0.10;;;;;;;25.10;44.10;100366.66;6291572;22;20007;-80
2021/07/10 11:44:14;;;;;;;0.10;0.10;;;;;;;24.83;44.76;100366.47;6292259;22;20025;-80
2021/07/10 11:46:55;;;;;;;0.10;0.10;;;;;;;24.66;45.31;100369.66;6324823;22;20018;-80
2021/07/10 11:49:54;;;;;;;0.20;0.20;;;;;;;24.31;45.34;100375.97;6300345;22;20011;-81
2021/07/10 11:52:22;;;;;;;0.20;0.20;;;;;;;23.80;45.51;100349.53;6230660;22;20011;-80
2021/07/10 11:55:07;;;;;;;0.20;0.20;;;;;;;23.85;45.80;100370.78;6294483;22;20003;-82
2021/07/10 11:57:35;;;;;;;0.47;0.30;;;;;;;23.61;46.41;100352.16;6287104;22;20009;-80
2021/07/10 12:00:04;;;;;;;0.10;0.10;;;;;;;23.76;47.12;100364.53;6287081;22;20007;-77
2021/07/10 12:02:35;;;;;;;0.10;0.10;;;;;;;23.78;47.80;100357.44;6281919;22;20000;-81
2021/07/10 12:05:16;;;;;;;0.10;0.10;;;;;;;23.94;47.17;100359.47;6289708;22;20023;-81
2021/07/10 12:07:52;;;;;;;0.10;0.10;;;;;;;23.88;46.86;100356.94;6297894;22;19994;-79
2021/07/10 12:10:39;;;;;;;0.30;0.30;;;;;;;23.95;47.09;100355.53;6299349;22;20009;-80
2021/07/10 12:13:15;;;;;;;0.17;0.10;;;;;;;24.50;48.60;100353.72;6290724;22;20003;-82
2021/07/10 12:15:52;;;;;;;0.17;0.17;;;;;;;25.55;48.40;100367.19;6287358;22;20159;-81
2021/07/10 12:18:27;;;;;;;0.20;0.20;;;;;;;26.03;45.93;100359.31;6294239;22;20000;-81
2021/07/10 12:20:57;;;;;;;0.10;0.10;;;;;;;26.37;45.16;100355.88;6325480;22;20072;-83
2021/07/10 12:23:39;;;;;;;0.10;0.10;;;;;;;26.72;45.32;100343.63;6290586;22;20309;-81
2021/07/10 12:26:10;;;;;;;0.20;0.10;;;;;;;27.33;45.02;100353.69;6297384;22;20007;-82
2021/07/10 12:28:47;;;;;;;0.10;0.10;;;;;;;27.94;43.81;100362.00;6289302;22;20038;-82
2021/07/10 12:31:16;;;;;;;0.10;0.10;;;;;;;28.36;43.02;100357.97;6289377;22;20026;-81
2021/07/10 12:33:52;;;;;;;0.00;0.00;;;;;;;29.03;43.12;100347.59;6284671;22;20008;-81
2021/07/10 12:36:20;;;;;;;0.00;0.00;;;;;;;30.80;42.94;100353.53;6287004;22;20010;-83
2021/07/10 12:39:12;;;;;;;0.10;0.10;;;;;;;33.12;36.76;100360.06;6288446;22;20011;-82
2021/07/10 12:41:39;;;;;;;0.00;0.00;;;;;;;33.90;36.56;100356.59;6286464;22;20003;-80
2021/07/10 12:44:17;;;;;;;0.13;0.10;;;;;;;34.44;34.85;100367.09;6284245;22;20058;-82
2021/07/10 12:47:05;;;;;;;;;;;;;;;;;;;;;
2021/07/10 12:49:42;;;;;;;0.10;0.10;;;;;;;35.44;29.75;100363.56;6280959;22;20027;-82
2021/07/10 12:52:20;;;;;;;0.20;0.20;;;;;;;35.54;30.54;100368.22;6282958;22;20045;-81
2021/07/10 12:55:00;;;;;;;0.10;0.10;;;;;;;35.48;29.21;100358.59;6283869;22;20007;-80
2021/07/10 12:57:50;;;;;;;0.10;0.10;;;;;;;34.82;28.90;100363.22;6283531;22;19999;-81
2021/07/10 13:00:28;;;;;;;0.00;0.00;;;;;;;34.24;29.41;100364.16;6285686;22;20006;-81
2021/07/10 13:03:19;;;;;;;0.20;0.20;;;;;;;33.87;30.03;100368.81;6308381;22;20011;-80
2021/07/10 13:05:53;;;;;;;0.22;0.17;;;;;;;34.53;30.77;100358.81;6271537;22;20000;-80
2021/07/10 13:08:35;;;;;;;0.45;0.10;;;;;;;36.09;30.22;100362.09;6281885;22;19996;-80
2021/07/10 13:11:10;;;;;;;;;;;;;;;;;;;;;
2021/07/10 13:13:41;;;;;;;0.10;0.10;;;;;;;37.08;27.11;100373.34;6282889;22;20344;-80
2021/07/10 13:16:10;;;;;;;0.10;0.10;;;;;;;36.95;27.48;100370.47;6281358;22;20026;-80
2021/07/10 13:18:55;;;;;;;0.15;0.10;;;;;;;36.92;25.64;100355.06;6280445;22;20055;-80
2021/07/10 13:21:32;;;;;;;0.10;0.10;;;;;;;36.38;26.30;100367.91;6308220;22;20003;-79
2021/07/10 13:24:08;;;;;;;0.10;0.10;;;;;;;35.99;26.53;100370.44;6280989;22;20011;-80
2021/07/10 13:26:40;;;;;;;0.25;0.20;;;;;;;35.46;25.98;100364.72;6282581;22;20373;-80
2021/07/10 13:29:09;;;;;;;0.10;0.10;;;;;;;34.60;26.40;100361.53;6280710;22;20007;-82
2021/07/10 13:31:40;;;;;;;0.10;0.10;;;;;;;34.04;27.21;100361.25;6284672;22;20474;-80
2021/07/10 13:34:19;;;;;;;0.20;0.20;;;;;;;33.57;27.74;100340.06;6283477;22;20382;-80
2021/07/10 13:36:47;;;;;;;0.10;0.10;;;;;;;34.17;28.37;100358.59;6296511;22;20007;-79
2021/07/10 13:39:14;;;;;;;0.10;0.10;;;;;;;34.38;28.02;100354.66;6299895;22;20011;-79